Time;durP1;ratioP1;P1;durP2;ratioP2;P2;SDS_P1;SDS_P2;PMS_P1;PMS_P2;Temp;Humidity;BMP_temperature;BMP_pressure;BME280_temperature;BME280_humidity;BME280_pressure;Samples;Min_cycle;Max_cycle;Signal;HPM_P1;HPM_P2
2022/06/21 00:00:17;;;;;;;3.53;2.22;;;19.30;72.80;;;;;;5051368;28;20189;-81
2022/06/21 00:02:44;;;;;;;2.28;2.17;;;19.30;72.60;;;;;;5050030;28;20179;-80
2022/06/21 00:05:20;;;;;;;2.58;2.47;;;19.30;73.10;;;;;;5053150;28;20187;-80
2022/06/21 00:07:46;;;;;;;2.35;2.30;;;19.30;72.60;;;;;;5048915;28;20256;-80
2022/06/21 00:10:18;;;;;;;2.33;2.20;;;19.30;73.90;;;;;;5055816;28;20272;-81
2022/06/21 00:12:44;;;;;;;3.53;2.08;;;19.30;74.30;;;;;;5050656;28;20191;-79
2022/06/21 00:15:11;;;;;;;2.13;1.98;;;19.20;74.70;;;;;;5051113;28;20307;-80
2022/06/21 00:17:39;;;;;;;2.22;2.22;;;19.20;73.60;;;;;;5051918;28;20199;-80
2022/06/21 00:20:05;;;;;;;2.97;2.72;;;19.20;73.40;;;;;;5050322;28;20187;-80
2022/06/21 00:22:31;;;;;;;2.10;2.10;;;19.10;73.80;;;;;;5049718;28;20684;-80
2022/06/21 00:24:57;;;;;;;2.28;2.20;;;19.10;73.50;;;;;;5057387;28;20181;-81
2022/06/21 00:27:22;;;;;;;2.40;2.30;;;19.10;74.20;;;;;;5050259;28;20654;-82
2022/06/21 00:29:49;;;;;;;2.17;2.10;;;19.10;74.10;;;;;;5051730;28;20187;-80
2022/06/21 00:32:17;;;;;;;2.30;2.30;;;19.10;73.80;;;;;;5055174;28;20183;-81
2022/06/21 00:34:44;;;;;;;2.10;1.95;;;19.10;74.50;;;;;;5053974;28;20187;-80
2022/06/21 00:37:20;;;;;;;2.33;2.22;;;19.10;74.60;;;;;;5053661;28;20202;-80
2022/06/21 00:39:47;;;;;;;5.25;2.70;;;19.00;74.10;;;;;;5054418;28;20229;-80
2022/06/21 00:42:29;;;;;;;2.28;2.28;;;19.00;74.70;;;;;;5053049;28;20179;-81
2022/06/21 00:45:11;;;;;;;1.98;1.88;;;19.00;74.10;;;;;;5049720;28;20179;-80
2022/06/21 00:47:50;;;;;;;1.95;1.95;;;19.00;74.10;;;;;;5042578;28;20188;-80
2022/06/21 00:50:25;;;;;;;3.05;2.28;;;19.00;74.40;;;;;;5046971;28;20581;-80
2022/06/21 00:53:07;;;;;;;2.75;2.47;;;19.00;75.00;;;;;;5046770;28;20191;-80
2022/06/21 00:55:54;;;;;;;2.67;2.53;;;19.00;75.10;;;;;;5050074;28;20218;-80
2022/06/21 00:58:25;;;;;;;2.80;2.70;;;18.90;74.80;;;;;;5052187;28;20188;-80
2022/06/21 01:01:03;;;;;;;2.22;2.08;;;18.90;75.70;;;;;;5056451;28;20274;-80
2022/06/21 01:03:53;;;;;;;2.20;2.20;;;18.90;75.60;;;;;;5057301;28;20179;-80
2022/06/21 01:06:26;;;;;;;2.33;2.22;;;18.90;75.20;;;;;;5046551;28;20198;-80
2022/06/21 01:08:58;;;;;;;2.65;2.55;;;18.80;75.00;;;;;;5048516;28;20187;-80
2022/06/21 01:11:31;;;;;;;2.40;2.28;;;18.80;75.50;;;;;;5049309;28;20254;-80
2022/06/21 01:14:00;;;;;;;2.83;2.08;;;18.80;75.40;;;;;;5045836;28;20203;-81
2022/06/21 01:16:28;;;;;;;2.67;2.58;;;18.70;76.20;;;;;;5051484;28;20700;-80
2022/06/21 01:18:54;;;;;;;2.40;2.30;;;18.70;76.80;;;;;;5051451;28;20197;-80
2022/06/21 01:21:21;;;;;;;2.47;2.42;;;18.60;75.40;;;;;;5048857;28;20913;-80
2022/06/21 01:23:56;;;;;;;2.65;2.55;;;18.60;75.80;;;;;;5045189;28;20728;-79
2022/06/21 01:26:33;;;;;;;6.43;2.45;;;18.60;75.70;;;;;;5047967;28;20565;-79
2022/06/21 01:29:00;;;;;;;2.40;2.30;;;18.50;76.20;;;;;;5054203;28;20184;-80
2022/06/21 01:31:28;;;;;;;3.78;2.67;;;18.50;76.20;;;;;;5053162;28;20708;-80
2022/06/21 01:33:53;;;;;;;2.72;2.53;;;18.50;76.60;;;;;;5050978;28;20187;-79
2022/06/21 01:36:24;;;;;;;2.67;2.58;;;18.50;76.40;;;;;;5052452;28;20268;-79
2022/06/21 01:39:05;;;;;;;2.75;2.55;;;18.40;76.50;;;;;;5051831;28;20179;-80
2022/06/21 01:42:08;;;;;;;2.67;2.30;;;18.40;75.90;;;;;;5050123;28;20178;-79
2022/06/21 01:44:41;;;;;;;2.28;2.28;;;18.40;77.30;;;;;;5065651;28;20197;-79
2022/06/21 01:47:13;;;;;;;2.50;2.35;;;18.40;76.80;;;;;;5062419;28;20408;-79
2022/06/21 01:49:46;;;;;;;2.72;2.63;;;18.40;77.20;;;;;;5065153;28;20179;-79
2022/06/21 01:52:19;;;;;;;2.40;2.30;;;18.30;76.50;;;;;;5067279;28;20198;-80
2022/06/21 01:54:52;;;;;;;2.95;2.70;;;18.30;78.30;;;;;;5070176;28;21036;-79
2022/06/21 01:57:18;;;;;;;3.00;2.90;;;18.30;77.70;;;;;;5074037;28;20206;-79
2022/06/21 01:59:47;;;;;;;3.13;3.03;;;18.20;77.70;;;;;;5068691;28;20189;-78
2022/06/21 02:02:16;;;;;;;3.15;2.72;;;18.20;77.00;;;;;;5071529;28;20303;-79
2022/06/21 02:04:51;;;;;;;2.42;2.33;;;18.10;76.80;;;;;;5065771;28;20640;-79
2022/06/21 02:07:22;;;;;;;2.88;2.25;;;18.20;77.60;;;;;;5063458;28;20890;-79
2022/06/21 02:10:03;;;;;;;2.65;2.55;;;18.10;78.10;;;;;;5070502;28;20194;-79
2022/06/21 02:12:30;;;;;;;2.75;2.65;;;18.10;77.70;;;;;;5063515;28;21127;-79
2022/06/21 02:14:58;;;;;;;2.33;2.33;;;18.10;78.80;;;;;;5065369;28;20775;-80
2022/06/21 02:17:40;;;;;;;2.67;2.58;;;18.10;78.70;;;;;;5064103;28;20214;-79
2022/06/21 02:20:25;;;;;;;2.70;2.60;;;18.10;77.80;;;;;;5046889;28;20231;-79
2022/06/21 02:22:50;;;;;;;2.75;2.65;;;18.00;78.70;;;;;;5049661;28;20203;-79
2022/06/21 02:25:21;;;;;;;4.50;2.42;;;18.00;78.70;;;;;;5053693;28;20210;-80
2022/06/21 02:27:49;;;;;;;2.17;2.08;;;17.90;77.80;;;;;;5044486;28;20298;-80
2022/06/21 02:30:19;;;;;;;2.75;2.55;;;17.90;79.00;;;;;;5050274;28;20600;-79
2022/06/21 02:32:45;;;;;;;3.00;2.80;;;17.90;78.30;;;;;;5050851;28;20258;-79
2022/06/21 02:35:41;;;;;;;2.28;2.15;;;17.80;78.20;;;;;;5043598;28;20222;-79
2022/06/21 02:38:20;;;;;;;2.38;2.17;;;17.80;78.40;;;;;;5052370;28;20180;-78
2022/06/21 02:40:53;;;;;;;2.22;2.22;;;17.80;78.50;;;;;;5049109;28;20193;-79
2022/06/21 02:43:30;;;;;;;2.70;2.53;;;17.70;78.90;;;;;;5049020;28;20198;-80
2022/06/21 02:46:13;;;;;;;2.50;2.40;;;17.70;78.50;;;;;;5042119;28;20191;-79
2022/06/21 02:48:46;;;;;;;1.92;1.92;;;17.70;77.90;;;;;;5041518;28;21079;-79
2022/06/21 02:51:20;;;;;;;2.35;2.25;;;17.60;78.50;;;;;;5050554;28;20187;-80
2022/06/21 02:54:07;;;;;;;2.25;1.92;;;17.60;78.90;;;;;;5049914;28;20648;-78
2022/06/21 02:56:49;;;;;;;1.70;1.70;;;17.60;79.10;;;;;;5048660;28;20222;-79
2022/06/21 02:59:15;;;;;;;2.28;2.15;;;17.60;78.60;;;;;;5043405;28;20185;-78
2022/06/21 03:01:56;;;;;;;2.08;1.98;;;17.60;78.40;;;;;;5047838;28;20194;-79
2022/06/21 03:04:32;;;;;;;2.38;2.25;;;17.50;78.10;;;;;;5049635;28;20184;-79
2022/06/21 03:06:58;;;;;;;2.60;2.40;;;17.50;79.00;;;;;;5042734;28;20183;-79
2022/06/21 03:09:24;;;;;;;2.53;2.28;;;17.50;79.00;;;;;;5050843;28;20183;-79
2022/06/21 03:11:53;;;;;;;1.90;1.90;;;17.50;79.40;;;;;;5049849;28;20191;-80
2022/06/21 03:14:23;;;;;;;1.83;1.83;;;17.50;79.00;;;;;;5052937;28;20309;-79
2022/06/21 03:16:50;;;;;;;3.80;2.47;;;17.50;78.50;;;;;;5051190;28;20356;-81
2022/06/21 03:19:30;;;;;;;2.40;2.30;;;17.50;78.80;;;;;;5050690;28;20187;-80
2022/06/21 03:21:57;;;;;;;2.30;2.10;;;17.50;78.40;;;;;;5048831;28;20269;-79
2022/06/21 03:24:26;;;;;;;2.05;2.00;;;17.50;79.00;;;;;;5056163;28;20198;-80
2022/06/21 03:27:03;;;;;;;2.30;2.30;;;17.50;79.70;;;;;;5050952;28;20186;-79
2022/06/21 03:29:29;;;;;;;2.70;2.25;;;17.50;79.00;;;;;;5064195;28;20190;-79
2022/06/21 03:31:56;;;;;;;2.55;2.42;;;17.50;79.50;;;;;;5054762;28;20202;-80
2022/06/21 03:34:24;;;;;;;2.42;2.33;;;17.50;79.80;;;;;;5047102;28;20672;-79
2022/06/21 03:36:50;;;;;;;2.15;2.15;;;17.50;79.90;;;;;;5048435;28;20219;-80
2022/06/21 03:42:16;;;;;;;2.47;2.25;;;17.50;79.30;;;;;;5050930;28;20270;-80
2022/06/21 03:44:50;;;;;;;2.38;2.28;;;17.50;80.40;;;;;;5041798;28;20199;-80
2022/06/21 03:47:25;;;;;;;2.70;2.60;;;17.50;80.00;;;;;;5049507;28;20661;-80
2022/06/21 03:49:55;;;;;;;2.13;2.03;;;17.50;79.90;;;;;;5084846;28;20232;-80
2022/06/21 03:52:41;;;;;;;2.63;2.53;;;17.60;80.50;;;;;;5048382;28;20190;-80
2022/06/21 03:55:16;;;;;;;2.78;2.58;;;17.60;79.40;;;;;;5053411;28;20965;-78
2022/06/21 03:57:52;;;;;;;3.90;2.50;;;17.60;80.20;;;;;;5053926;28;20690;-78
2022/06/21 04:00:19;;;;;;;1.92;1.88;;;17.60;80.10;;;;;;5049629;28;20197;-78
2022/06/21 04:02:57;;;;;;;2.33;2.22;;;17.60;80.10;;;;;;5054965;28;20211;-80
2022/06/21 04:05:35;;;;;;;1.98;1.88;;;17.60;80.10;;;;;;5052549;28;20183;-79
2022/06/21 04:08:05;;;;;;;2.60;2.50;;;17.70;80.60;;;;;;5041912;28;20195;-79
2022/06/21 04:10:37;;;;;;;2.70;2.38;;;17.70;80.90;;;;;;5047916;28;20191;-80
2022/06/21 04:13:09;;;;;;;2.42;2.22;;;17.70;81.00;;;;;;5046346;28;20927;-80
2022/06/21 04:15:44;;;;;;;2.33;2.17;;;17.70;80.50;;;;;;5046847;28;20643;-80
2022/06/21 04:18:30;;;;;;;2.83;2.72;;;17.70;81.30;;;;;;5057281;28;20179;-80
2022/06/21 04:21:15;;;;;;;2.70;2.60;;;17.70;80.50;;;;;;5053277;28;20575;-80
2022/06/21 04:23:53;;;;;;;2.10;2.10;;;17.70;80.30;;;;;;5057403;28;20175;-80
2022/06/21 04:26:27;;;;;;;3.67;2.78;;;17.70;80.50;;;;;;5054445;28;20782;-80
2022/06/21 04:29:19;;;;;;;2.70;2.28;;;17.80;81.10;;;;;;5056697;28;20180;-81
2022/06/21 04:32:01;;;;;;;2.38;2.28;;;17.80;81.10;;;;;;5052524;28;20568;-81
2022/06/21 04:34:30;;;;;;;2.72;2.63;;;17.80;80.60;;;;;;5054856;28;20255;-80
2022/06/21 04:37:11;;;;;;;3.47;3.28;;;17.80;81.20;;;;;;5055018;28;20215;-80
2022/06/21 04:39:55;;;;;;;3.85;2.58;;;17.90;81.30;;;;;;5051409;28;20198;-80
2022/06/21 04:42:44;;;;;;;2.35;2.25;;;17.90;81.20;;;;;;5047979;28;20229;-80
2022/06/21 04:45:12;;;;;;;2.92;2.42;;;17.90;80.50;;;;;;5051801;28;20586;-77
2022/06/21 04:47:48;;;;;;;4.03;2.75;;;17.90;81.80;;;;;;5053702;28;20207;-77
2022/06/21 04:50:24;;;;;;;2.38;2.28;;;17.90;80.80;;;;;;5054265;28;20687;-77
2022/06/21 04:53:02;;;;;;;2.78;2.65;;;18.00;81.20;;;;;;5052258;28;20266;-75
2022/06/21 04:55:40;;;;;;;3.03;2.63;;;18.00;80.80;;;;;;5050518;28;20225;-76
2022/06/21 04:58:08;;;;;;;3.20;3.00;;;18.10;80.90;;;;;;5052617;28;20266;-77
2022/06/21 05:00:34;;;;;;;2.85;2.75;;;18.10;81.30;;;;;;5054858;28;20186;-78
2022/06/21 05:03:08;;;;;;;2.88;2.78;;;18.10;81.90;;;;;;5050345;28;20187;-78
2022/06/21 05:05:36;;;;;;;4.38;2.53;;;18.20;80.90;;;;;;5048954;28;20269;-78
2022/06/21 05:08:01;;;;;;;2.67;2.58;;;18.20;81.00;;;;;;5048511;28;20176;-78
2022/06/21 05:10:41;;;;;;;3.13;2.90;;;18.20;81.20;;;;;;5053011;28;20189;-76
2022/06/21 05:13:27;;;;;;;3.35;3.10;;;18.30;80.30;;;;;;5054093;28;20675;-76
2022/06/21 05:15:57;;;;;;;4.05;2.97;;;18.30;80.30;;;;;;5052797;28;20217;-76
2022/06/21 05:18:58;;;;;;;3.78;3.50;;;18.40;81.10;;;;;;5047122;28;20210;-77
2022/06/21 05:21:39;;;;;;;3.80;2.50;;;18.40;80.90;;;;;;5027974;28;20278;-80
2022/06/21 05:24:05;;;;;;;3.10;2.85;;;18.40;80.00;;;;;;5005426;28;20279;-81
2022/06/21 05:26:36;;;;;;;3.83;3.10;;;18.40;80.30;;;;;;5024971;28;20640;-80
2022/06/21 05:29:30;;;;;;;2.83;2.63;;;18.50;80.00;;;;;;5020024;28;20203;-79
2022/06/21 05:32:00;;;;;;;4.25;3.60;;;18.60;79.90;;;;;;5002041;28;20205;-80
2022/06/21 05:34:36;;;;;;;3.88;3.55;;;18.60;80.60;;;;;;5002256;28;20782;-81
2022/06/21 05:37:12;;;;;;;3.60;3.35;;;18.60;80.00;;;;;;4996753;28;20228;-77
2022/06/21 05:39:44;;;;;;;3.25;3.05;;;18.70;80.30;;;;;;5001445;28;20202;-78
2022/06/21 05:42:13;;;;;;;3.20;3.03;;;18.80;79.60;;;;;;5002270;28;20217;-77
2022/06/21 05:45:08;;;;;;;3.25;3.03;;;18.80;79.80;;;;;;5001888;28;20199;-78
2022/06/21 05:47:43;;;;;;;2.80;2.60;;;18.80;79.40;;;;;;4999648;28;20195;-74
2022/06/21 05:50:16;;;;;;;3.08;2.78;;;18.90;79.10;;;;;;5001573;28;20299;-74
2022/06/21 05:52:47;;;;;;;3.13;2.88;;;19.00;79.10;;;;;;5000660;28;20939;-74
2022/06/21 05:55:21;;;;;;;4.15;3.08;;;19.00;79.30;;;;;;4997315;28;20701;-75
2022/06/21 05:57:50;;;;;;;3.33;3.13;;;19.10;78.90;;;;;;4999715;28;20270;-78
2022/06/21 06:00:53;;;;;;;4.13;3.72;;;19.10;79.20;;;;;;4999614;28;21218;-75
2022/06/21 06:03:23;;;;;;;5.03;3.95;;;19.20;78.60;;;;;;4955243;28;20194;-74
2022/06/21 06:05:49;;;;;;;3.53;3.33;;;19.20;78.80;;;;;;4955314;28;20199;-74
2022/06/21 06:08:26;;;;;;;3.75;3.55;;;19.30;79.20;;;;;;4962699;28;20193;-74
2022/06/21 06:10:53;;;;;;;2.90;2.80;;;19.40;78.90;;;;;;4991830;28;20219;-73
2022/06/21 06:13:31;;;;;;;7.38;4.10;;;19.40;79.00;;;;;;4990751;28;20213;-74
2022/06/21 06:16:01;;;;;;;3.05;2.80;;;19.50;78.90;;;;;;5001213;28;20223;-74
2022/06/21 06:18:40;;;;;;;3.40;3.10;;;19.60;78.50;;;;;;5001504;28;20954;-74
2022/06/21 06:21:30;;;;;;;3.10;2.90;;;19.70;78.40;;;;;;5008748;28;20199;-75
2022/06/21 06:24:00;;;;;;;5.90;3.53;;;19.70;78.70;;;;;;4924595;28;20203;-73
2022/06/21 06:26:31;;;;;;;3.25;3.05;;;19.80;78.30;;;;;;4927078;29;20207;-73
2022/06/21 06:29:23;;;;;;;4.82;4.47;;;19.90;78.90;;;;;;4926935;28;20719;-73
2022/06/21 06:31:54;;;;;;;3.05;2.78;;;20.00;77.70;;;;;;4926205;29;20262;-72
2022/06/21 06:34:25;;;;;;;2.97;2.88;;;20.10;78.10;;;;;;4927031;29;20190;-74
2022/06/21 06:36:55;;;;;;;4.22;3.50;;;20.10;77.70;;;;;;4921506;29;20293;-73
2022/06/21 06:39:33;;;;;;;9.60;4.53;;;20.20;78.50;;;;;;4931164;28;20183;-74
2022/06/21 06:41:59;;;;;;;3.30;2.95;;;20.20;77.30;;;;;;4948232;28;20213;-74
2022/06/21 06:44:29;;;;;;;3.35;3.25;;;20.30;77.50;;;;;;4944173;28;20187;-75
2022/06/21 06:46:58;;;;;;;4.25;3.88;;;20.40;77.10;;;;;;4947411;28;20187;-75
2022/06/21 06:49:38;;;;;;;5.13;3.85;;;20.50;77.10;;;;;;4946669;28;20262;-75
2022/06/21 06:52:19;;;;;;;3.33;3.13;;;20.60;76.50;;;;;;4947665;28;20197;-73
2022/06/21 06:55:11;;;;;;;3.85;3.65;;;20.70;76.60;;;;;;4944738;28;20226;-73
2022/06/21 06:57:50;;;;;;;6.30;3.85;;;20.80;77.00;;;;;;4927154;29;20211;-74
2022/06/21 07:00:24;;;;;;;3.83;3.47;;;20.90;76.00;;;;;;4939408;28;20748;-74
2022/06/21 07:03:11;;;;;;;5.05;4.50;;;20.90;75.60;;;;;;4982106;28;20866;-74
2022/06/21 07:05:46;;;;;;;4.97;4.13;;;20.90;77.40;;;;;;4988039;28;20782;-74
2022/06/21 07:08:31;;;;;;;3.85;3.63;;;21.00;76.10;;;;;;4995049;28;20231;-74
2022/06/21 07:10:59;;;;;;;3.45;3.13;;;21.10;75.70;;;;;;5009892;28;20205;-74
2022/06/21 07:13:26;;;;;;;6.40;3.40;;;21.20;76.70;;;;;;5025061;28;20188;-73
2022/06/21 07:15:58;;;;;;;3.30;3.10;;;21.40;76.80;;;;;;5029644;28;20290;-74
2022/06/21 07:18:38;;;;;;;3.70;3.17;;;21.50;76.30;;;;;;5027093;28;20203;-73
2022/06/21 07:21:05;;;;;;;3.70;3.55;;;21.60;76.00;;;;;;5030194;28;20191;-74
2022/06/21 07:23:31;;;;;;;2.95;2.85;;;21.80;77.10;;;;;;5029945;28;20678;-74
2022/06/21 07:26:04;;;;;;;3.75;3.15;;;21.90;76.50;;;;;;5028195;28;20229;-75
2022/06/21 07:28:49;;;;;;;2.85;2.42;;;22.00;76.10;;;;;;5027986;28;20686;-75
2022/06/21 07:31:22;;;;;;;2.60;2.50;;;22.20;76.00;;;;;;5026134;28;20192;-75
2022/06/21 07:34:00;;;;;;;3.17;2.97;;;22.30;75.80;;;;;;5033349;28;20222;-75
2022/06/21 07:36:38;;;;;;;2.92;2.83;;;22.50;75.50;;;;;;5051113;28;20741;-74
2022/06/21 07:39:22;;;;;;;2.90;2.80;;;22.60;75.50;;;;;;5049204;28;20219;-75
2022/06/21 07:41:55;;;;;;;4.93;3.20;;;22.80;75.50;;;;;;5049969;28;20687;-73
2022/06/21 07:44:55;;;;;;;2.92;2.72;;;22.90;75.20;;;;;;5052225;28;20174;-74
2022/06/21 07:47:32;;;;;;;2.45;2.35;;;23.10;74.50;;;;;;5006111;28;20196;-74
2022/06/21 07:50:06;;;;;;;2.70;2.58;;;23.40;72.60;;;;;;4994523;28;20192;-75
2022/06/21 07:52:38;;;;;;;2.33;2.22;;;23.70;72.10;;;;;;5011104;28;20215;-74
2022/06/21 07:55:16;;;;;;;2.63;2.53;;;23.90;71.70;;;;;;5007643;28;20754;-75
2022/06/21 07:57:52;;;;;;;2.90;2.80;;;24.20;71.50;;;;;;5009539;28;20188;-74
2022/06/21 08:00:21;;;;;;;3.42;3.22;;;24.40;71.20;;;;;;5009493;28;20219;-75
2022/06/21 08:08:51;;;;;;;2.58;2.58;;;24.90;70.30;;;;;;5009553;28;20204;-75
2022/06/21 08:11:22;;;;;;;3.72;3.53;;;25.10;70.10;;;;;;5008796;28;20212;-75
2022/06/21 08:13:48;;;;;;;3.22;3.13;;;25.20;70.00;;;;;;5005939;28;20196;-74
2022/06/21 08:16:18;;;;;;;3.63;3.53;;;25.20;70.00;;;;;;5009834;28;20334;-74
2022/06/21 08:19:14;;;;;;;6.25;3.80;;;25.30;70.10;;;;;;5007865;28;20345;-74
2022/06/21 08:21:48;;;;;;;4.13;3.78;;;25.50;70.10;;;;;;5009861;28;20216;-74
2022/06/21 08:24:39;;;;;;;3.83;3.45;;;25.50;69.30;;;;;;5033621;28;20601;-77
2022/06/21 08:27:08;;;;;;;3.95;3.83;;;25.60;69.60;;;;;;5045269;28;20688;-77
2022/06/21 08:29:46;;;;;;;3.67;3.58;;;25.80;69.50;;;;;;5049026;28;20568;-75
2022/06/21 08:32:31;;;;;;;4.07;3.88;;;25.90;69.60;;;;;;5048704;28;20280;-74
2022/06/21 08:35:06;;;;;;;4.88;4.45;;;26.00;69.50;;;;;;5049596;28;20199;-73
2022/06/21 08:38:01;;;;;;;7.95;4.30;;;26.20;69.50;;;;;;5050556;28;20194;-75
2022/06/21 08:40:57;;;;;;;5.00;4.32;;;26.30;69.20;;;;;;5025762;28;20256;-74
2022/06/21 08:44:13;;;;;;;4.25;3.95;;;26.40;69.30;;;;;;5026461;28;20330;-75
2022/06/21 08:46:55;;;;;;;4.03;3.83;;;26.50;68.60;;;;;;4913292;29;20769;-75
2022/06/21 08:49:42;;;;;;;5.72;4.60;;;26.60;69.10;;;;;;4913119;29;20203;-75
2022/06/21 08:52:32;;;;;;;4.63;4.32;;;26.60;68.90;;;;;;4911015;29;20203;-75
2022/06/21 08:55:17;;;;;;;7.60;4.15;;;26.50;69.00;;;;;;4914264;29;20188;-74
2022/06/21 08:58:17;;;;;;;4.60;4.40;;;26.50;69.50;;;;;;4914030;29;20216;-74
2022/06/21 09:00:57;;;;;;;4.95;4.38;;;26.40;69.60;;;;;;4917708;29;20291;-73
2022/06/21 09:04:07;;;;;;;12.40;4.13;;;26.30;69.60;;;;;;4917141;29;20691;-77
2022/06/21 09:06:53;;;;;;;4.22;4.05;;;26.40;70.10;;;;;;4917045;29;20681;-75
2022/06/21 09:09:48;;;;;;;5.63;5.20;;;26.30;69.80;;;;;;4916114;29;20587;-76
2022/06/21 09:12:32;;;;;;;4.68;4.28;;;26.30;70.40;;;;;;4915870;29;20208;-76
2022/06/21 09:15:21;;;;;;;5.40;4.95;;;26.40;70.10;;;;;;4919478;29;20203;-75
2022/06/21 09:17:56;;;;;;;5.03;4.60;;;26.50;69.70;;;;;;4939514;28;20206;-75
2022/06/21 09:20:39;;;;;;;5.85;5.25;;;26.70;69.70;;;;;;4960291;28;20655;-75
2022/06/21 09:23:35;;;;;;;4.82;4.38;;;26.90;70.00;;;;;;5031737;28;20277;-76
2022/06/21 09:26:03;;;;;;;4.82;4.55;;;27.00;69.30;;;;;;5043371;28;20634;-75
2022/06/21 09:28:50;;;;;;;5.03;4.63;;;27.20;69.00;;;;;;5040144;28;20186;-75
2022/06/21 09:31:51;;;;;;;5.95;4.80;;;27.20;68.80;;;;;;5047636;28;20189;-73
2022/06/21 09:34:28;;;;;;;4.93;4.63;;;27.20;69.10;;;;;;5011480;28;20276;-75
2022/06/21 09:37:07;;;;;;;5.05;4.75;;;27.30;68.80;;;;;;5020412;28;20235;-78
2022/06/21 09:39:58;;;;;;;5.82;5.32;;;27.30;68.80;;;;;;5025069;28;20260;-77
2022/06/21 09:42:31;;;;;;;5.40;5.10;;;27.40;68.80;;;;;;5026403;28;20189;-79
2022/06/21 09:45:08;;;;;;;5.20;4.90;;;27.60;68.70;;;;;;5025069;28;20191;-78
2022/06/21 09:48:08;;;;;;;5.00;4.80;;;27.50;68.60;;;;;;5024712;28;20271;-78
2022/06/21 09:50:59;;;;;;;5.65;4.93;;;27.70;69.30;;;;;;5005094;28;20327;-78
2022/06/21 09:53:46;;;;;;;5.20;4.78;;;27.70;68.20;;;;;;5022617;28;20639;-78
2022/06/21 09:56:42;;;;;;;5.70;5.40;;;27.70;68.60;;;;;;5022693;28;20249;-78
2022/06/21 09:59:32;;;;;;;6.05;5.07;;;27.60;68.90;;;;;;5023337;28;20270;-78
2022/06/21 10:02:06;;;;;;;5.25;4.95;;;27.60;68.40;;;;;;5023730;28;21432;-78
2022/06/21 10:04:57;;;;;;;5.45;5.07;;;27.60;68.50;;;;;;5022591;28;20283;-78
2022/06/21 10:07:22;;;;;;;5.55;5.20;;;27.80;68.10;;;;;;5020597;28;20271;-79
2022/06/21 10:09:57;;;;;;;5.43;5.20;;;27.90;68.20;;;;;;5027336;28;20271;-78
2022/06/21 10:12:53;;;;;;;5.45;5.25;;;28.00;67.30;;;;;;5041269;28;20195;-77
2022/06/21 10:15:30;;;;;;;5.93;5.53;;;28.20;66.80;;;;;;5047037;28;20575;-76
2022/06/21 10:18:24;;;;;;;5.93;5.50;;;28.30;67.00;;;;;;5048424;28;20197;-75
2022/06/21 10:21:08;;;;;;;6.13;5.72;;;28.30;66.70;;;;;;5041947;28;20230;-77
2022/06/21 10:24:21;;;;;;;6.85;5.63;;;28.50;66.70;;;;;;5046782;28;20182;-75
2022/06/21 10:27:07;;;;;;;5.03;4.72;;;28.60;66.30;;;;;;5059168;28;20505;-76
2022/06/21 10:30:00;;;;;;;5.15;4.72;;;28.80;65.80;;;;;;5040948;28;20201;-76
2022/06/21 10:32:51;;;;;;;5.65;5.25;;;28.90;65.20;;;;;;5074695;28;20605;-76
2022/06/21 10:35:40;;;;;;;10.07;4.90;;;29.20;65.20;;;;;;5058649;28;20674;-77
2022/06/21 10:38:27;;;;;;;4.78;4.35;;;29.30;64.90;;;;;;5055268;28;20285;-75
2022/06/21 10:41:19;;;;;;;4.80;4.45;;;29.50;64.90;;;;;;5056142;28;20183;-76
2022/06/21 10:44:38;;;;;;;4.38;4.05;;;29.80;64.10;;;;;;5056777;28;20186;-76
2022/06/21 10:47:12;;;;;;;5.13;4.82;;;30.10;63.20;;;;;;4963042;28;20192;-75
2022/06/21 10:50:09;;;;;;;4.30;4.00;;;30.40;63.00;;;;;;4982915;28;20190;-76
2022/06/21 10:53:04;;;;;;;4.55;4.18;;;30.60;63.00;;;;;;4965315;28;20201;-76
2022/06/21 10:55:40;;;;;;;6.55;4.18;;;30.90;62.10;;;;;;4966587;28;20267;-77
2022/06/21 10:58:17;;;;;;;4.78;4.47;;;31.30;62.40;;;;;;4975673;28;20810;-77
2022/06/21 11:04:04;;;;;;;5.15;4.20;;;32.20;61.00;;;;;;4971988;28;20844;-76
2022/06/21 11:06:44;;;;;;;4.53;4.22;;;32.70;60.10;;;;;;4975872;28;20607;-76
2022/06/21 11:09:20;;;;;;;5.72;4.70;;;33.00;59.50;;;;;;4959766;28;20679;-75
2022/06/21 11:11:52;;;;;;;8.43;4.93;;;33.40;58.60;;;;;;4973252;28;20189;-75
2022/06/21 11:14:23;;;;;;;4.95;4.80;;;33.50;58.50;;;;;;4973306;28;20264;-76
2022/06/21 11:17:12;;;;;;;5.07;4.88;;;33.60;57.60;;;;;;4970567;28;20228;-75
2022/06/21 11:20:03;;;;;;;5.45;4.95;;;33.60;58.30;;;;;;4973022;28;20600;-75
2022/06/21 11:22:46;;;;;;;5.45;5.05;;;33.50;58.40;;;;;;5053766;28;20184;-75
2022/06/21 11:25:29;;;;;;;4.97;4.68;;;33.60;58.60;;;;;;5052442;28;20221;-76
2022/06/21 11:28:18;;;;;;;5.13;4.93;;;33.90;58.50;;;;;;5052592;28;20282;-77
2022/06/21 11:30:57;;;;;;;5.57;5.28;;;34.20;57.80;;;;;;5057603;28;20174;-76
2022/06/21 11:33:37;;;;;;;5.43;5.20;;;34.30;57.30;;;;;;5055675;28;20660;-77
2022/06/21 11:36:22;;;;;;;5.32;4.93;;;34.20;56.80;;;;;;5054702;28;20221;-75
2022/06/21 11:39:22;;;;;;;5.13;4.82;;;34.40;57.70;;;;;;5052067;28;20186;-76
2022/06/21 11:42:05;;;;;;;5.07;4.90;;;34.60;57.40;;;;;;5055280;28;20186;-75
2022/06/21 11:44:58;;;;;;;5.00;4.68;;;35.00;57.20;;;;;;5054344;28;20178;-76
2022/06/21 11:47:54;;;;;;;5.10;4.70;;;35.50;55.40;;;;;;5050279;28;20218;-75
2022/06/21 11:50:58;;;;;;;5.35;4.88;;;35.80;54.40;;;;;;5047402;28;20193;-76
2022/06/21 11:53:43;;;;;;;5.22;4.93;;;35.90;54.50;;;;;;5028854;28;20690;-76
2022/06/21 11:56:30;;;;;;;5.13;4.72;;;36.00;55.40;;;;;;5029970;28;20221;-76
2022/06/21 11:59:15;;;;;;;4.57;4.30;;;36.10;55.00;;;;;;5030348;28;20195;-75
2022/06/21 12:02:01;;;;;;;5.30;4.90;;;36.10;54.50;;;;;;5030807;28;20187;-76
2022/06/21 12:04:44;;;;;;;5.28;4.95;;;36.10;55.40;;;;;;5023446;28;20786;-76
2022/06/21 12:07:15;;;;;;;4.80;4.60;;;36.30;55.70;;;;;;5025252;28;20254;-75
2022/06/21 12:10:02;;;;;;;4.53;4.43;;;36.60;54.70;;;;;;5029034;28;20179;-75
2022/06/21 12:12:37;;;;;;;4.85;4.75;;;36.90;53.30;;;;;;5025315;28;20187;-76
2022/06/21 12:15:20;;;;;;;5.13;4.93;;;37.00;54.60;;;;;;5027420;28;21014;-76
2022/06/21 12:17:54;;;;;;;5.53;5.20;;;37.40;53.70;;;;;;5025447;28;20218;-76
2022/06/21 12:20:30;;;;;;;5.10;4.90;;;37.70;52.90;;;;;;5028948;28;20187;-75
2022/06/21 12:23:06;;;;;;;5.10;4.80;;;37.90;52.50;;;;;;5027819;28;20199;-76
2022/06/21 12:25:32;;;;;;;4.72;4.47;;;38.00;53.10;;;;;;5024798;28;20187;-75
2022/06/21 12:27:59;;;;;;;5.75;5.13;;;38.00;52.40;;;;;;5016642;28;20282;-77
2022/06/21 12:30:30;;;;;;;5.85;4.95;;;37.90;52.10;;;;;;5035630;28;20591;-76
2022/06/21 12:33:02;;;;;;;5.10;4.80;;;37.80;52.40;;;;;;5046309;28;20672;-76
2022/06/21 12:35:56;;;;;;;5.43;4.78;;;37.70;52.10;;;;;;5050928;28;20923;-77
2022/06/21 12:38:40;;;;;;;4.70;4.40;;;37.60;52.30;;;;;;5050726;28;20191;-76
2022/06/21 12:41:57;;;;;;;5.57;5.03;;;37.60;51.60;;;;;;5050917;28;20190;-76
2022/06/21 12:44:43;;;;;;;4.40;4.20;;;37.60;51.70;;;;;;5041824;28;20661;-75
2022/06/21 12:47:23;;;;;;;4.45;4.15;;;37.80;52.70;;;;;;5041120;28;20191;-75
2022/06/21 12:50:26;;;;;;;4.93;4.45;;;37.80;52.30;;;;;;5024797;28;20249;-77
2022/06/21 12:53:10;;;;;;;5.07;4.65;;;37.90;50.60;;;;;;5042508;28;20742;-76
2022/06/21 12:55:50;;;;;;;5.03;4.05;;;37.80;51.50;;;;;;5039955;28;20206;-75
2022/06/21 12:58:27;;;;;;;4.65;4.30;;;37.90;52.90;;;;;;5044561;28;20182;-76
2022/06/21 13:00:57;;;;;;;4.30;4.20;;;38.10;52.60;;;;;;5044898;28;20715;-75
2022/06/21 13:04:04;;;;;;;4.60;4.40;;;38.40;51.00;;;;;;5034237;28;20263;-76
2022/06/21 13:06:48;;;;;;;4.60;4.38;;;38.40;50.80;;;;;;5041127;28;20407;-77
2022/06/21 13:09:42;;;;;;;4.43;4.10;;;38.30;51.70;;;;;;5045383;28;20194;-76
2022/06/21 13:12:16;;;;;;;4.75;4.55;;;38.30;50.30;;;;;;5022921;28;20213;-75
2022/06/21 13:15:06;;;;;;;4.40;4.18;;;38.40;51.10;;;;;;5040962;28;20205;-76
2022/06/21 13:18:09;;;;;;;4.47;4.18;;;38.40;50.00;;;;;;5042248;28;20236;-75
2022/06/21 13:20:53;;;;;;;4.13;3.85;;;37.90;50.90;;;;;;5049812;28;20189;-76
2022/06/21 13:23:57;;;;;;;4.53;4.18;;;37.60;50.80;;;;;;5049993;28;20179;-76
2022/06/21 13:26:48;;;;;;;4.70;4.53;;;37.60;51.10;;;;;;5030338;28;20191;-76
2022/06/21 13:29:22;;;;;;;4.32;4.13;;;37.80;51.50;;;;;;5029021;28;20207;-76
2022/06/21 13:31:55;;;;;;;4.55;4.20;;;37.80;52.80;;;;;;5030709;28;20689;-76
2022/06/21 13:34:32;;;;;;;4.80;4.43;;;37.90;52.20;;;;;;5013439;28;20187;-76
2022/06/21 13:37:07;;;;;;;4.47;4.38;;;38.00;51.20;;;;;;5028161;28;20223;-76
2022/06/21 13:39:55;;;;;;;4.68;4.57;;;38.00;51.30;;;;;;5027376;28;20222;-75
2022/06/21 13:42:56;;;;;;;5.20;4.60;;;37.70;51.60;;;;;;5026560;28;20202;-76
2022/06/21 13:45:38;;;;;;;4.65;4.47;;;37.40;52.40;;;;;;4935438;29;20656;-76
2022/06/21 13:48:16;;;;;;;5.15;4.75;;;36.70;53.10;;;;;;4934658;29;20628;-76
2022/06/21 13:51:04;;;;;;;5.20;4.80;;;36.40;53.70;;;;;;4934543;29;20190;-76
2022/06/21 13:53:48;;;;;;;4.63;4.43;;;36.30;54.30;;;;;;4938690;29;20234;-76
2022/06/21 13:56:19;;;;;;;5.03;4.72;;;36.20;52.60;;;;;;4932949;29;20218;-76
2022/06/21 13:58:54;;;;;;;4.65;4.45;;;36.00;53.80;;;;;;4934701;29;20752;-76